createdAt,value
2019-02-12T00:00:38.171Z,22.7
2019-02-12T00:01:40.321Z,22.7
2019-02-12T00:02:42.747Z,22.7
2019-02-12T00:03:45.175Z,22.8
2019-02-12T00:04:47.325Z,22.7
2019-02-12T00:05:49.491Z,22.8
2019-02-12T00:06:51.650Z,22.8
2019-02-12T00:07:54.075Z,22.7
2019-02-12T00:08:56.495Z,22.8
2019-02-12T00:09:58.355Z,22.8
2019-02-12T00:11:00.785Z,22.8
2019-02-12T00:12:03.212Z,22.8
2019-02-12T00:13:05.646Z,22.8
2019-02-12T00:14:07.801Z,22.8
2019-02-12T00:15:09.953Z,22.8
2019-02-12T00:16:12.128Z,22.7
2019-02-12T00:17:14.554Z,22.8
2019-02-12T00:18:16.709Z,22.8
2019-02-12T00:19:18.856Z,22.8
2019-02-12T00:20:21.007Z,22.8
2019-02-12T00:21:23.435Z,22.8
2019-02-12T00:22:25.612Z,22.8
2019-02-12T00:23:27.762Z,22.8
2019-02-12T00:24:29.885Z,22.8
2019-02-12T00:25:32.305Z,22.8
2019-02-12T00:26:34.735Z,22.8
2019-02-12T00:27:36.895Z,22.8
2019-02-12T00:28:39.324Z,22.8
2019-02-12T00:29:41.195Z,22.8
2019-02-12T00:30:43.625Z,22.8
2019-02-12T00:31:45.763Z,22.9
2019-02-12T00:32:48.190Z,22.9
2019-02-12T00:33:50.353Z,22.9
2019-02-12T00:34:52.533Z,22.9
2019-02-12T00:35:54.693Z,22.9
2019-02-12T00:36:57.137Z,22.9
2019-02-12T00:37:59.563Z,22.9
2019-02-12T00:39:01.983Z,22.9
2019-02-12T00:40:04.142Z,23
2019-02-12T00:41:06.315Z,23
2019-02-12T00:42:08.435Z,22.9
2019-02-12T00:43:10.593Z,23
2019-02-12T00:44:13.031Z,23
2019-02-12T00:45:15.457Z,23
2019-02-12T00:46:17.631Z,23
2019-02-12T00:47:19.794Z,23
2019-02-12T00:48:22.214Z,23
2019-02-12T00:49:24.641Z,23
2019-02-12T00:50:27.084Z,23
2019-02-12T00:51:29.508Z,23
2019-02-12T00:52:31.936Z,23
2019-02-12T00:53:34.123Z,23
2019-02-12T00:54:36.279Z,23
2019-02-12T00:55:38.719Z,23
2019-02-12T00:56:41.174Z,23
2019-02-12T00:57:43.597Z,23
2019-02-12T00:58:45.731Z,23.1
2019-02-12T00:59:48.171Z,23.1
2019-02-12T01:00:50.608Z,23.1
2019-02-12T01:01:52.475Z,23.1
2019-02-12T01:02:54.623Z,23.1
2019-02-12T01:03:57.044Z,23.1
2019-02-12T01:04:59.195Z,23.1
2019-02-12T01:06:01.655Z,23.1
2019-02-12T01:07:03.516Z,23.1
2019-02-12T01:08:05.645Z,23.1
2019-02-12T01:09:08.071Z,23.1
2019-02-12T01:10:09.956Z,23.1
2019-02-12T01:11:12.375Z,23.1
2019-02-12T01:12:14.805Z,23.1
2019-02-12T01:13:16.933Z,23.1
2019-02-12T01:14:19.361Z,23.1
2019-02-12T01:15:21.798Z,23.1
2019-02-12T01:16:23.921Z,23.1
2019-02-12T01:17:26.362Z,23.1
2019-02-12T01:18:28.797Z,23.1
2019-02-12T01:19:31.257Z,23.1
2019-02-12T01:20:33.423Z,23.1
2019-02-12T01:21:35.598Z,23.1
2019-02-12T01:22:37.743Z,23.2
2019-02-12T01:23:39.887Z,23.2
2019-02-12T01:24:42.053Z,23.2
2019-02-12T01:25:44.203Z,23.2
2019-02-12T01:26:46.103Z,23.2
2019-02-12T01:27:48.524Z,23.2
2019-02-12T01:28:50.698Z,23.3
2019-02-12T01:29:53.127Z,23.3
2019-02-12T01:30:55.553Z,23.3
2019-02-12T01:31:57.694Z,23.3
2019-02-12T01:32:59.543Z,23.3
2019-02-12T01:34:01.962Z,23.3
2019-02-12T01:35:04.383Z,23.4
2019-02-12T01:36:06.556Z,23.4
2019-02-12T01:37:08.700Z,23.4
2019-02-12T01:38:10.843Z,23.4
2019-02-12T01:39:12.721Z,23.4
2019-02-12T01:40:15.155Z,23.4
2019-02-12T01:41:17.576Z,23.4
2019-02-12T01:42:20.038Z,23.4
2019-02-12T01:43:22.481Z,23.5
2019-02-12T01:44:24.916Z,23.5
2019-02-12T01:45:27.350Z,23.5
2019-02-12T01:46:29.769Z,23.5
2019-02-12T01:47:32.115Z,23.5
2019-02-12T01:48:34.267Z,23.5
2019-02-12T01:49:36.400Z,23.5
2019-02-12T01:50:38.277Z,23.5
2019-02-12T01:51:40.705Z,23.5
2019-02-12T01:52:43.121Z,23.5
2019-02-12T01:53:45.275Z,23.6
2019-02-12T01:54:47.429Z,23.6
2019-02-12T01:55:49.582Z,23.6
2019-02-12T01:56:51.998Z,23.6
2019-02-12T01:57:54.423Z,23.6
2019-02-12T01:58:56.863Z,23.6
2019-02-12T01:59:59.291Z,23.6
2019-02-12T02:01:01.634Z,23.6
2019-02-12T02:02:04.052Z,23.6
2019-02-12T02:03:06.215Z,23.6
2019-02-12T02:04:08.085Z,23.6
2019-02-12T02:05:10.235Z,23.6
2019-02-12T02:06:12.665Z,23.6
2019-02-12T02:07:14.569Z,23.6
2019-02-12T02:08:16.449Z,23.6
2019-02-12T02:09:18.599Z,23.6
2019-02-12T02:10:21.028Z,23.7
2019-02-12T02:11:23.197Z,23.7
2019-02-12T02:12:25.616Z,23.7
2019-02-12T02:13:28.036Z,23.7
2019-02-12T02:14:30.465Z,23.7
2019-02-12T02:15:32.885Z,23.7
2019-02-12T02:16:35.316Z,23.7
2019-02-12T02:17:37.737Z,23.7
2019-02-12T02:18:39.886Z,23.7
2019-02-12T02:19:41.753Z,23.7
2019-02-12T02:20:44.183Z,23.7
2019-02-12T02:21:46.326Z,23.7
2019-02-12T02:22:48.511Z,23.7
2019-02-12T02:23:50.933Z,23.7
2019-02-12T02:24:52.801Z,23.7
2019-02-12T02:25:55.263Z,23.7
2019-02-12T02:26:57.116Z,23.7
2019-02-12T02:27:58.989Z,23.7
2019-02-12T02:29:01.133Z,23.7
2019-02-12T02:30:03.555Z,23.8
2019-02-12T02:31:05.989Z,23.8
2019-02-12T02:32:08.407Z,23.8
2019-02-12T02:33:10.845Z,23.8
2019-02-12T02:34:13.290Z,23.8
2019-02-12T02:35:15.706Z,23.8
2019-02-12T02:36:18.184Z,23.8
2019-02-12T02:37:20.335Z,23.8
2019-02-12T02:38:22.757Z,23.8
2019-02-12T02:39:24.652Z,23.8
2019-02-12T02:40:26.821Z,23.8
2019-02-12T02:41:29.298Z,23.8
2019-02-12T02:42:31.472Z,23.8
2019-02-12T02:43:33.896Z,23.8
2019-02-12T02:44:36.045Z,23.8
2019-02-12T02:45:38.474Z,23.8
2019-02-12T02:46:40.370Z,23.8
2019-02-12T02:47:42.495Z,23.8
2019-02-12T02:48:44.905Z,23.8
2019-02-12T02:49:47.348Z,23.8
2019-02-12T02:50:49.235Z,23.8
2019-02-12T02:52:56.353Z,23.8
2019-02-12T02:53:58.788Z,23.8
2019-02-12T02:55:00.942Z,23.8
2019-02-12T02:56:03.095Z,23.8
2019-02-12T02:57:05.524Z,23.8
2019-02-12T02:58:07.685Z,23.8
2019-02-12T02:59:09.555Z,23.8
2019-02-12T03:00:12.043Z,23.8
2019-02-12T03:01:13.897Z,23.8
2019-02-12T03:02:16.054Z,23.8
2019-02-12T03:03:18.225Z,23.8
2019-02-12T03:04:20.385Z,23.8
2019-02-12T03:05:22.808Z,23.8
2019-02-12T03:06:25.275Z,23.8
2019-02-12T03:07:27.705Z,23.8
2019-02-12T03:08:29.854Z,23.8
2019-02-12T03:09:32.006Z,23.8
2019-02-12T03:10:34.435Z,23.9
2019-02-12T03:11:36.858Z,23.9
2019-02-12T03:12:39.285Z,23.9
2019-02-12T03:13:41.708Z,23.9
2019-02-12T03:14:43.855Z,23.9
2019-02-12T03:15:46.015Z,23.9
2019-02-12T03:16:48.468Z,23.9
2019-02-12T03:17:50.900Z,23.9
2019-02-12T03:18:53.314Z,23.9
2019-02-12T03:19:55.473Z,23.9
2019-02-12T03:20:57.905Z,23.9
2019-02-12T03:23:05.315Z,23.9
2019-02-12T03:24:07.746Z,23.9
2019-02-12T03:25:09.904Z,23.9
2019-02-12T03:26:12.332Z,23.9
2019-02-12T03:27:14.766Z,23.9
2019-02-12T03:28:17.188Z,23.9
2019-02-12T03:29:19.345Z,23.9
2019-02-12T03:30:21.788Z,23.9
2019-02-12T03:31:23.933Z,23.9
2019-02-12T03:32:26.382Z,23.9
2019-02-12T03:33:28.944Z,23.9
2019-02-12T03:34:31.365Z,23.9
2019-02-12T03:35:33.517Z,23.8
2019-02-12T03:36:35.663Z,23.9
2019-02-12T03:37:38.104Z,23.8
2019-02-12T03:38:40.530Z,23.8
2019-02-12T03:39:42.959Z,23.9
2019-02-12T03:40:45.127Z,23.9
2019-02-12T03:41:47.267Z,23.9
2019-02-12T03:42:49.682Z,23.9
2019-02-12T03:43:51.834Z,23.9
2019-02-12T03:44:54.267Z,23.9
2019-02-12T03:45:56.139Z,23.9
2019-02-12T03:46:58.560Z,23.9
2019-02-12T03:48:01.001Z,23.9
2019-02-12T03:49:03.134Z,23.9
2019-02-12T03:50:05.276Z,23.9
2019-02-12T03:51:07.703Z,23.9
2019-02-12T03:53:15.107Z,23.9
2019-02-12T03:54:17.566Z,23.9
2019-02-12T03:55:19.709Z,23.9
2019-02-12T03:56:21.304Z,23.9
2019-02-12T03:57:23.169Z,23.9
2019-02-12T03:58:25.594Z,23.9
2019-02-12T03:59:27.474Z,23.9
2019-02-12T04:00:29.902Z,23.9
2019-02-12T04:01:32.081Z,23.9
2019-02-12T04:02:34.511Z,23.9
2019-02-12T04:03:37.734Z,23.9
2019-02-12T04:04:39.882Z,23.8
2019-02-12T04:05:42.044Z,23.8
2019-02-12T04:06:44.205Z,23.8
2019-02-12T04:07:46.338Z,23.8
2019-02-12T04:08:48.228Z,23.7
2019-02-12T04:09:50.109Z,23.7
2019-02-12T04:10:52.541Z,23.7
2019-02-12T04:11:54.118Z,23.6
2019-02-12T04:12:56.286Z,23.6
2019-02-12T04:13:58.434Z,23.5
2019-02-12T04:15:00.599Z,23.5
2019-02-12T04:16:02.724Z,23.5
2019-02-12T04:17:04.897Z,23.5
2019-02-12T04:18:07.054Z,23.5
2019-02-12T04:19:09.277Z,23.4
2019-02-12T04:20:11.777Z,23.4
2019-02-12T04:21:14.191Z,23.4
2019-02-12T04:23:21.333Z,23.3
2019-02-12T04:24:23.502Z,23.3
2019-02-12T04:25:25.938Z,23.3
2019-02-12T04:26:27.806Z,23.3
2019-02-12T04:27:30.230Z,23.3
2019-02-12T04:28:32.116Z,23.3
2019-02-12T04:29:34.548Z,23.2
2019-02-12T04:30:36.686Z,23.2
2019-02-12T04:31:38.827Z,23.2
2019-02-12T04:32:41.253Z,23.2
2019-02-12T04:33:43.418Z,23.2
2019-02-12T04:34:45.854Z,23.2
2019-02-12T04:35:48.331Z,23.2
2019-02-12T04:36:50.186Z,23.2
2019-02-12T04:37:52.342Z,23.1
2019-02-12T04:38:54.764Z,23.1
2019-02-12T04:39:57.184Z,23.1
2019-02-12T04:40:59.613Z,23.1
2019-02-12T04:42:02.038Z,23.1
2019-02-12T04:43:04.468Z,23.1
2019-02-12T04:44:06.894Z,23.1
2019-02-12T04:45:09.316Z,23.1
2019-02-12T04:46:11.742Z,23.1
2019-02-12T04:47:13.895Z,23.1
2019-02-12T04:48:16.034Z,23.1
2019-02-12T04:49:17.637Z,23.1
2019-02-12T04:50:20.065Z,23.1
2019-02-12T04:51:22.242Z,23.1
2019-02-12T04:53:29.366Z,23.1
2019-02-12T04:54:31.821Z,23.1
2019-02-12T04:55:34.256Z,23.1
2019-02-12T04:56:36.135Z,23.1
2019-02-12T04:57:38.573Z,23
2019-02-12T04:58:40.990Z,23
2019-02-12T04:59:43.418Z,23
2019-02-12T05:00:45.571Z,23
2019-02-12T05:01:47.994Z,23
2019-02-12T05:02:50.428Z,23
2019-02-12T05:03:52.556Z,23
2019-02-12T05:04:54.712Z,23
2019-02-12T05:05:57.237Z,23
2019-02-12T05:06:59.387Z,23
2019-02-12T05:08:01.517Z,23
2019-02-12T05:09:03.941Z,23
2019-02-12T05:10:06.093Z,23
2019-02-12T05:11:08.244Z,23
2019-02-12T05:12:10.463Z,23
2019-02-12T05:13:12.342Z,23
2019-02-12T05:14:14.462Z,23
2019-02-12T05:15:16.955Z,23
2019-02-12T05:16:19.133Z,23
2019-02-12T05:17:21.293Z,23
2019-02-12T05:18:23.717Z,23
2019-02-12T05:19:25.970Z,23
2019-02-12T05:20:28.395Z,23
2019-02-12T05:21:30.831Z,23
2019-02-12T05:23:37.962Z,23
2019-02-12T05:24:40.398Z,23
2019-02-12T05:25:42.841Z,23
2019-02-12T05:26:45.306Z,23
2019-02-12T05:27:47.204Z,23
2019-02-12T05:28:49.643Z,23
2019-02-12T05:29:51.816Z,23
2019-02-12T05:30:54.238Z,23
2019-02-12T05:31:56.664Z,22.9
2019-02-12T05:32:59.097Z,23
2019-02-12T05:34:01.270Z,22.9
2019-02-12T05:35:03.598Z,22.9
2019-02-12T05:36:05.754Z,22.9
2019-02-12T05:37:08.195Z,22.9
2019-02-12T05:38:10.633Z,22.9
2019-02-12T05:39:12.790Z,22.9
2019-02-12T05:40:15.225Z,22.9
2019-02-12T05:41:17.664Z,22.9
2019-02-12T05:42:19.791Z,22.9
2019-02-12T05:43:21.956Z,22.9
2019-02-12T05:44:23.842Z,22.9
2019-02-12T05:45:26.007Z,22.9
2019-02-12T05:46:28.436Z,22.9
2019-02-12T05:47:30.603Z,22.9
2019-02-12T05:48:33.027Z,22.9
2019-02-12T05:49:35.185Z,22.9
2019-02-12T05:50:37.616Z,22.9
2019-02-12T05:51:39.484Z,22.9
2019-02-12T05:52:41.740Z,22.9
2019-02-12T05:53:43.613Z,22.9
2019-02-12T05:54:45.195Z,22.9
2019-02-12T05:55:47.619Z,22.9
2019-02-12T05:56:49.783Z,22.9
2019-02-12T05:57:52.277Z,22.9
2019-02-12T05:58:54.699Z,22.9
2019-02-12T05:59:57.116Z,22.9
2019-02-12T06:00:59.274Z,22.9
2019-02-12T06:02:01.435Z,22.9
2019-02-12T06:03:03.864Z,22.9
2019-02-12T06:04:06.002Z,22.9
2019-02-12T06:05:07.935Z,22.9
2019-02-12T06:06:10.368Z,22.9
2019-02-12T06:07:12.796Z,22.9
2019-02-12T06:08:14.984Z,22.9
2019-02-12T06:09:17.448Z,22.9
2019-02-12T06:10:19.924Z,22.8
2019-02-12T06:11:22.334Z,22.8
2019-02-12T06:12:24.506Z,22.9
2019-02-12T06:13:26.931Z,22.9
2019-02-12T06:14:29.355Z,22.8
2019-02-12T06:15:31.493Z,22.9
2019-02-12T06:16:33.924Z,22.8
2019-02-12T06:17:36.356Z,22.8
2019-02-12T06:18:38.784Z,22.8
2019-02-12T06:19:41.213Z,22.8
2019-02-12T06:20:43.102Z,22.8
2019-02-12T06:21:45.522Z,22.8
2019-02-12T06:22:47.685Z,22.8
2019-02-12T06:23:50.114Z,22.8
2019-02-12T06:24:52.560Z,22.8
2019-02-12T06:25:54.999Z,22.8
2019-02-12T06:26:58.702Z,22.8
2019-02-12T06:28:00.913Z,22.8
2019-02-12T06:29:03.077Z,22.8
2019-02-12T06:30:05.242Z,22.8
2019-02-12T06:31:07.384Z,22.8
2019-02-12T06:32:09.271Z,22.8
2019-02-12T06:33:11.733Z,22.8
2019-02-12T06:34:13.886Z,22.8
2019-02-12T06:35:16.376Z,22.8
2019-02-12T06:36:18.794Z,22.8
2019-02-12T06:37:20.939Z,22.8
2019-02-12T06:38:23.086Z,22.8
2019-02-12T06:39:25.530Z,22.8
2019-02-12T06:40:27.988Z,22.8
2019-02-12T06:41:30.404Z,22.8
2019-02-12T06:42:32.835Z,22.8
2019-02-12T06:43:34.997Z,22.8
2019-02-12T06:44:37.436Z,22.8
2019-02-12T06:45:39.622Z,22.8
2019-02-12T06:46:42.049Z,22.8
2019-02-12T06:47:43.905Z,22.8
2019-02-12T06:48:46.061Z,22.8
2019-02-12T06:49:48.211Z,22.8
2019-02-12T06:50:50.644Z,22.8
2019-02-12T06:51:52.801Z,22.8
2019-02-12T06:52:54.944Z,22.8
2019-02-12T06:53:57.374Z,22.8
2019-02-12T06:54:59.842Z,22.8
2019-02-12T06:56:02.387Z,22.8
2019-02-12T06:57:04.272Z,22.8
2019-02-12T06:58:06.171Z,22.8
2019-02-12T06:59:08.602Z,22.8
2019-02-12T07:00:10.480Z,22.8
2019-02-12T07:01:12.925Z,22.8
2019-02-12T07:02:15.363Z,22.8
2019-02-12T07:03:17.522Z,22.8
2019-02-12T07:04:19.947Z,22.8
2019-02-12T07:05:22.086Z,22.8
2019-02-12T07:06:24.517Z,22.8
2019-02-12T07:07:26.707Z,22.8
2019-02-12T07:08:28.943Z,22.8
2019-02-12T07:09:31.382Z,22.8
2019-02-12T07:10:33.529Z,22.8
2019-02-12T07:11:35.970Z,22.8
2019-02-12T07:12:38.137Z,22.8
2019-02-12T07:13:40.581Z,22.8
2019-02-12T07:14:43.008Z,22.8
2019-02-12T07:15:45.430Z,22.8
2019-02-12T07:16:47.862Z,22.8
2019-02-12T07:17:50.023Z,22.8
2019-02-12T07:18:54.458Z,22.8
2019-02-12T07:19:56.991Z,22.8
2019-02-12T07:20:59.192Z,22.8
2019-02-12T07:22:01.627Z,22.8
2019-02-12T07:23:03.843Z,22.8
2019-02-12T07:24:05.985Z,22.7
2019-02-12T07:25:08.131Z,22.7
2019-02-12T07:26:10.554Z,22.7
2019-02-12T07:27:12.984Z,22.7
2019-02-12T07:28:15.460Z,22.7
2019-02-12T07:29:18.026Z,22.7
2019-02-12T07:30:20.170Z,22.7
2019-02-12T07:31:22.596Z,22.7
2019-02-12T07:32:24.504Z,22.7
2019-02-12T07:33:26.933Z,22.7
2019-02-12T07:34:29.362Z,22.7
2019-02-12T07:35:31.512Z,22.7
2019-02-12T07:36:33.646Z,22.7
2019-02-12T07:37:35.821Z,22.7
2019-02-12T07:38:37.952Z,22.7
2019-02-12T07:39:40.404Z,22.7
2019-02-12T07:40:42.543Z,22.7
2019-02-12T07:41:44.990Z,22.7
2019-02-12T07:42:47.139Z,22.7
2019-02-12T07:43:49.037Z,22.7
2019-02-12T07:44:50.925Z,22.7
2019-02-12T07:45:53.095Z,22.7
2019-02-12T07:46:55.276Z,22.7
2019-02-12T07:47:57.713Z,22.7
2019-02-12T07:48:59.896Z,22.7
2019-02-12T07:50:02.321Z,22.7
2019-02-12T07:51:04.803Z,22.7
2019-02-12T07:52:07.234Z,22.7
2019-02-12T07:53:09.673Z,22.7
2019-02-12T07:54:11.659Z,22.7
2019-02-12T07:55:13.897Z,22.7
2019-02-12T07:56:16.334Z,22.7
2019-02-12T07:57:18.780Z,22.7
2019-02-12T07:58:20.893Z,22.7
2019-02-12T07:59:23.343Z,22.7
2019-02-12T08:00:25.776Z,22.7
2019-02-12T08:01:28.214Z,22.7
2019-02-12T08:02:30.652Z,22.7
2019-02-12T08:03:35.307Z,22.7
2019-02-12T08:04:37.482Z,22.7
2019-02-12T08:05:39.915Z,22.7
2019-02-12T08:06:42.338Z,22.7
2019-02-12T08:07:44.774Z,22.7
2019-02-12T08:08:47.202Z,22.7
2019-02-12T08:09:49.638Z,22.7
2019-02-12T08:10:52.094Z,22.7
2019-02-12T08:11:54.232Z,22.7
2019-02-12T08:12:56.388Z,22.7
2019-02-12T08:13:58.819Z,22.7
2019-02-12T08:15:01.118Z,22.7
2019-02-12T08:16:03.555Z,22.7
2019-02-12T08:17:05.721Z,22.7
2019-02-12T08:18:08.185Z,22.7
2019-02-12T08:19:10.601Z,22.7
2019-02-12T08:20:12.761Z,22.7
2019-02-12T08:21:14.623Z,22.7
2019-02-12T08:22:17.053Z,22.7
2019-02-12T08:23:19.501Z,22.7
2019-02-12T08:24:21.928Z,22.7
2019-02-12T08:25:24.114Z,22.7
2019-02-12T08:26:26.277Z,22.7
2019-02-12T08:27:28.737Z,22.7
2019-02-12T08:28:30.869Z,22.7
2019-02-12T08:29:33.330Z,22.7
2019-02-12T08:30:35.495Z,22.7
2019-02-12T08:31:37.927Z,22.7
2019-02-12T08:32:40.354Z,22.7
2019-02-12T08:33:42.801Z,22.7
2019-02-12T08:34:45.985Z,22.7
2019-02-12T08:36:53.403Z,22.7
2019-02-12T08:37:55.821Z,22.7
2019-02-12T08:38:58.241Z,22.7
2019-02-12T08:40:00.717Z,22.7
2019-02-12T08:41:02.625Z,22.7
2019-02-12T08:42:04.788Z,22.7
2019-02-12T08:43:07.228Z,22.7
2019-02-12T08:44:09.678Z,22.7
2019-02-12T08:45:12.115Z,22.7
2019-02-12T08:46:14.293Z,22.7
2019-02-12T08:47:16.715Z,22.7
2019-02-12T08:48:19.157Z,22.7
2019-02-12T08:49:21.589Z,22.7
2019-02-12T08:50:24.015Z,22.7
2019-02-12T08:51:26.155Z,22.7
2019-02-12T08:52:28.305Z,22.7
2019-02-12T08:53:30.725Z,22.7
2019-02-12T08:54:33.151Z,22.7
2019-02-12T08:55:37.535Z,22.7
2019-02-12T08:56:39.997Z,22.7
2019-02-12T08:57:42.470Z,22.7
2019-02-12T08:58:44.632Z,22.7
2019-02-12T08:59:47.094Z,22.7
2019-02-12T09:00:49.271Z,22.7
2019-02-12T09:01:51.161Z,22.7
2019-02-12T09:02:53.618Z,22.7
2019-02-12T09:03:56.045Z,22.7
2019-02-12T09:04:58.463Z,22.7
2019-02-12T09:06:00.633Z,22.7
2019-02-12T09:07:07.541Z,22.7
2019-02-12T09:08:09.432Z,22.7
2019-02-12T09:09:11.325Z,22.7
2019-02-12T09:10:13.471Z,22.7
2019-02-12T09:11:15.632Z,22.7
2019-02-12T09:12:17.782Z,22.7
2019-02-12T09:13:19.911Z,22.7
2019-02-12T09:14:22.332Z,22.7
2019-02-12T09:15:24.486Z,22.7
2019-02-12T09:16:26.645Z,22.7
2019-02-12T09:17:29.085Z,22.7
2019-02-12T09:18:31.524Z,22.7
2019-02-12T09:19:33.676Z,22.7
2019-02-12T09:20:35.837Z,22.7
2019-02-12T09:21:38.443Z,22.7
2019-02-12T09:22:40.864Z,22.7
2019-02-12T09:23:43.030Z,22.7
2019-02-12T09:24:45.452Z,22.7
2019-02-12T09:25:47.596Z,22.7
2019-02-12T09:26:50.031Z,22.7
2019-02-12T09:27:52.160Z,22.7
2019-02-12T09:28:54.101Z,22.7
2019-02-12T09:29:56.273Z,22.7
2019-02-12T09:30:58.691Z,22.7
2019-02-12T09:32:00.855Z,22.7
2019-02-12T09:33:03.300Z,22.7
2019-02-12T09:34:05.460Z,22.7
2019-02-12T09:35:07.891Z,22.7
2019-02-12T09:36:10.307Z,22.7
2019-02-12T09:37:12.737Z,22.7
2019-02-12T09:38:14.876Z,22.7
2019-02-12T09:39:17.313Z,22.7
2019-02-12T09:40:20.458Z,22.7
2019-02-12T09:41:22.611Z,22.7
2019-02-12T09:42:24.773Z,22.7
2019-02-12T09:43:27.203Z,22.7
2019-02-12T09:44:29.631Z,22.7
2019-02-12T09:45:32.073Z,22.7
2019-02-12T09:46:34.513Z,22.7
2019-02-12T09:47:36.967Z,22.7
2019-02-12T09:48:39.396Z,22.7
2019-02-12T09:49:41.271Z,22.7
2019-02-12T09:50:43.450Z,22.7
2019-02-12T09:51:45.888Z,22.7
2019-02-12T09:52:48.340Z,22.7
2019-02-12T09:53:50.769Z,22.7
2019-02-12T09:54:54.873Z,22.7
2019-02-12T09:55:57.329Z,22.7
2019-02-12T09:56:59.493Z,22.7
2019-02-12T09:58:01.672Z,22.7
2019-02-12T09:59:03.850Z,22.7
2019-02-12T10:01:11.754Z,22.7
2019-02-12T10:02:13.921Z,22.7
2019-02-12T10:03:16.068Z,22.7
2019-02-12T10:04:17.980Z,22.7
2019-02-12T10:05:20.403Z,22.7
2019-02-12T10:07:27.320Z,22.7
2019-02-12T10:08:29.618Z,22.7
2019-02-12T10:09:32.046Z,22.7
2019-02-12T10:10:34.479Z,22.7
2019-02-12T10:11:36.898Z,22.7
2019-02-12T10:12:39.317Z,22.7
2019-02-12T10:13:41.733Z,22.7
2019-02-12T10:14:44.160Z,22.7
2019-02-12T10:15:46.585Z,22.7
2019-02-12T10:16:49.003Z,22.7
2019-02-12T10:17:51.429Z,22.7
2019-02-12T10:18:53.576Z,22.7
2019-02-12T10:19:56.002Z,22.7
2019-02-12T10:20:58.442Z,22.7
2019-02-12T10:22:00.879Z,22.7
2019-02-12T10:23:03.025Z,22.7
2019-02-12T10:24:05.199Z,22.7
2019-02-12T10:25:07.621Z,22.7
2019-02-12T10:26:10.065Z,22.7
2019-02-12T10:27:12.502Z,22.7
2019-02-12T10:28:14.926Z,22.7
2019-02-12T10:29:17.068Z,22.7
2019-02-12T10:30:19.493Z,22.7
2019-02-12T10:31:21.350Z,22.7
2019-02-12T10:32:23.221Z,22.7
2019-02-12T10:33:25.385Z,22.7
2019-02-12T10:34:27.816Z,22.7
2019-02-12T10:35:30.248Z,22.7
2019-02-12T10:36:32.395Z,22.7
2019-02-12T10:37:34.855Z,22.7
2019-02-12T10:38:37.284Z,22.7
2019-02-12T10:39:39.706Z,22.7
2019-02-12T10:40:41.850Z,22.7
2019-02-12T10:41:44.322Z,22.7
2019-02-12T10:42:46.751Z,22.7
2019-02-12T10:43:48.619Z,22.7
2019-02-12T10:44:50.786Z,22.7
2019-02-12T10:45:53.217Z,22.7
2019-02-12T10:46:55.377Z,22.7
2019-02-12T10:47:57.531Z,22.7
2019-02-12T10:48:59.689Z,22.7
2019-02-12T10:50:02.125Z,22.7
2019-02-12T10:51:04.295Z,22.7
2019-02-12T10:52:06.450Z,22.7
2019-02-12T10:53:10.006Z,22.7
2019-02-12T10:55:17.150Z,22.7
2019-02-12T10:56:19.590Z,22.7
2019-02-12T10:57:21.464Z,22.7
2019-02-12T10:58:23.607Z,22.7
2019-02-12T10:59:26.033Z,22.7
2019-02-12T11:00:28.478Z,22.7
2019-02-12T11:01:30.924Z,22.7
2019-02-12T11:02:33.338Z,22.7
2019-02-12T11:03:35.218Z,22.7
2019-02-12T11:04:37.631Z,22.7
2019-02-12T11:05:39.808Z,22.7
2019-02-12T11:06:41.958Z,22.7
2019-02-12T11:07:44.396Z,22.7
2019-02-12T11:08:46.826Z,22.7
2019-02-12T11:09:49.257Z,22.7
2019-02-12T11:10:51.404Z,22.7
2019-02-12T11:11:53.844Z,22.7
2019-02-12T11:12:56.276Z,22.7
2019-02-12T11:13:58.439Z,22.7
2019-02-12T11:15:00.869Z,22.7
2019-02-12T11:16:03.348Z,22.7
2019-02-12T11:17:05.520Z,22.7
2019-02-12T11:18:07.405Z,22.7
2019-02-12T11:19:09.839Z,22.7
2019-02-12T11:20:12.251Z,22.7
2019-02-12T11:21:14.698Z,22.7
2019-02-12T11:22:16.903Z,22.7
2019-02-12T11:23:19.356Z,22.7
2019-02-12T11:24:21.795Z,22.7
2019-02-12T11:25:23.965Z,22.7
2019-02-12T11:26:26.146Z,22.7
2019-02-12T11:27:28.324Z,22.7
2019-02-12T11:28:30.474Z,22.7
2019-02-12T11:29:32.647Z,22.7
2019-02-12T11:30:34.513Z,22.7
2019-02-12T11:31:36.935Z,22.7
2019-02-12T11:32:39.082Z,22.7
2019-02-12T11:33:41.519Z,22.7
2019-02-12T11:34:43.964Z,22.7
2019-02-12T11:35:46.395Z,22.7
2019-02-12T11:36:48.579Z,22.7
2019-02-12T11:37:51.012Z,22.7
2019-02-12T11:38:53.457Z,22.7
2019-02-12T11:39:55.605Z,22.7
2019-02-12T11:40:58.027Z,22.7
2019-02-12T11:42:00.196Z,22.7
2019-02-12T11:43:02.622Z,22.7
2019-02-12T11:44:04.750Z,22.7
2019-02-12T11:45:06.905Z,22.7
2019-02-12T11:46:09.348Z,22.7
2019-02-12T11:47:11.497Z,22.7
2019-02-12T11:48:13.641Z,22.7
2019-02-12T11:49:16.080Z,22.7
2019-02-12T11:50:18.237Z,22.7
2019-02-12T11:51:20.399Z,22.7
2019-02-12T11:52:22.825Z,22.7
2019-02-12T11:53:25.256Z,22.7
2019-02-12T11:54:29.266Z,22.7
2019-02-12T11:55:31.689Z,22.7
2019-02-12T11:56:34.124Z,22.7
2019-02-12T11:57:36.554Z,22.7
2019-02-12T11:58:38.999Z,22.7
2019-02-12T11:59:40.916Z,22.7
2019-02-12T12:00:43.331Z,22.7
2019-02-12T12:01:45.778Z,22.7
2019-02-12T12:02:48.219Z,22.7
2019-02-12T12:03:50.380Z,22.7
2019-02-12T12:04:52.518Z,22.7
2019-02-12T12:05:54.671Z,22.7
2019-02-12T12:06:57.093Z,22.7
2019-02-12T12:07:59.510Z,22.7
2019-02-12T12:09:01.933Z,22.7
2019-02-12T12:10:04.111Z,22.7
2019-02-12T12:11:06.533Z,22.7
2019-02-12T12:12:08.425Z,22.7
2019-02-12T12:13:10.860Z,22.7
2019-02-12T12:14:13.290Z,22.7
2019-02-12T12:15:15.414Z,22.7
2019-02-12T12:16:17.313Z,22.7
2019-02-12T12:17:19.196Z,22.7
2019-02-12T12:18:21.367Z,22.7
2019-02-12T12:19:23.250Z,22.7
2019-02-12T12:20:25.414Z,22.7
2019-02-12T12:21:27.841Z,22.7
2019-02-12T12:22:29.717Z,22.7
2019-02-12T12:23:31.881Z,22.7
2019-02-12T12:24:34.042Z,22.7
2019-02-12T12:25:36.515Z,22.7
2019-02-12T12:26:38.656Z,22.7
2019-02-12T12:27:41.093Z,22.7
2019-02-12T12:28:44.392Z,22.7
2019-02-12T12:29:46.534Z,22.7
2019-02-12T12:30:48.697Z,22.7
2019-02-12T12:31:51.216Z,22.7
2019-02-12T12:32:53.643Z,22.7
2019-02-12T12:33:56.082Z,22.7
2019-02-12T12:34:59.873Z,22.7
2019-02-12T12:36:01.633Z,22.7
2019-02-12T12:37:04.065Z,22.7
2019-02-12T12:38:05.941Z,22.7
2019-02-12T12:39:08.396Z,22.7
2019-02-12T12:40:10.546Z,22.7
2019-02-12T12:41:12.968Z,22.7
2019-02-12T12:42:15.396Z,22.7
2019-02-12T12:43:17.902Z,22.7
2019-02-12T12:44:20.451Z,22.7
2019-02-12T12:45:22.591Z,22.7
2019-02-12T12:46:25.036Z,22.7
2019-02-12T12:47:26.908Z,22.7
2019-02-12T12:48:29.083Z,22.7
2019-02-12T12:49:31.512Z,22.7
2019-02-12T12:50:33.102Z,22.7
2019-02-12T12:51:35.540Z,22.7
2019-02-12T12:52:37.972Z,22.7
2019-02-12T12:53:40.415Z,22.7
2019-02-12T12:54:42.595Z,22.6
2019-02-12T12:55:44.737Z,22.7
2019-02-12T12:56:47.157Z,22.6
2019-02-12T12:57:49.582Z,22.6
2019-02-12T12:58:52.005Z,22.7
2019-02-12T12:59:54.204Z,22.6
2019-02-12T13:00:57.030Z,22.6
2019-02-12T13:01:59.492Z,22.6
2019-02-12T13:03:01.663Z,22.6
2019-02-12T13:04:04.080Z,22.6
2019-02-12T13:05:06.230Z,22.7
2019-02-12T13:06:08.131Z,22.6
2019-02-12T13:07:10.570Z,22.6
2019-02-12T13:08:13.004Z,22.6
2019-02-12T13:09:15.177Z,22.6
2019-02-12T13:10:17.602Z,22.6
2019-02-12T13:11:20.042Z,22.6
2019-02-12T13:12:22.200Z,22.6
2019-02-12T13:13:24.643Z,22.6
2019-02-12T13:14:27.065Z,22.6
2019-02-12T13:15:29.223Z,22.6
2019-02-12T13:16:31.664Z,22.6
2019-02-12T13:17:33.804Z,22.6
2019-02-12T13:18:35.439Z,22.6
2019-02-12T13:19:37.880Z,22.6
2019-02-12T13:20:40.307Z,22.6
2019-02-12T13:21:42.464Z,22.6
2019-02-12T13:22:44.895Z,22.6
2019-02-12T13:23:47.324Z,22.6
2019-02-12T13:24:49.188Z,22.6
2019-02-12T13:25:51.354Z,22.6
2019-02-12T13:26:53.512Z,22.6
2019-02-12T13:27:55.396Z,22.6
2019-02-12T13:28:57.557Z,22.6
2019-02-12T13:30:01.248Z,22.6
2019-02-12T13:31:03.400Z,22.6
2019-02-12T13:32:05.560Z,22.6
2019-02-12T13:33:07.996Z,22.6
2019-02-12T13:34:09.855Z,22.6
2019-02-12T13:35:12.294Z,22.6
2019-02-12T13:36:14.470Z,22.6
2019-02-12T13:37:16.362Z,22.7
2019-02-12T13:38:18.783Z,22.6
2019-02-12T13:39:21.207Z,22.6
2019-02-12T13:40:23.624Z,22.7
2019-02-12T13:41:26.058Z,22.7
2019-02-12T13:42:28.492Z,22.7
2019-02-12T13:43:30.632Z,22.7
2019-02-12T13:44:33.044Z,22.7
2019-02-12T13:45:35.470Z,22.7
2019-02-12T13:46:37.908Z,22.7
2019-02-12T13:47:40.343Z,22.7
2019-02-12T13:48:42.535Z,22.7
2019-02-12T13:49:44.691Z,22.7
2019-02-12T13:50:47.137Z,22.7
2019-02-12T13:51:49.567Z,22.7
2019-02-12T13:52:51.992Z,22.7
2019-02-12T13:53:54.425Z,22.7
2019-02-12T13:54:56.863Z,22.7
2019-02-12T13:55:59.293Z,22.7
2019-02-12T13:57:01.719Z,22.7
2019-02-12T13:58:04.167Z,22.7
2019-02-12T13:59:06.588Z,22.7
2019-02-12T14:00:08.718Z,22.7
2019-02-12T14:01:10.925Z,22.7
2019-02-12T14:02:13.365Z,22.7
2019-02-12T14:04:20.872Z,22.7